sensor_id;sensor_type;location;lat;lon;timestamp;pressure;altitude;pressure_sealevel;temperature;humidity
78665;BME280;67981;51.022;-2.870;2023-10-13T00:01:53;101382.63;;;15.80;100.00
78665;BME280;67981;51.022;-2.870;2023-10-13T00:04:20;101359.91;;;15.72;100.00
78665;BME280;67981;51.022;-2.870;2023-10-13T00:06:48;101336.53;;;15.75;100.00
78665;BME280;67981;51.022;-2.870;2023-10-13T00:09:13;101319.19;;;15.74;100.00
78665;BME280;67981;51.022;-2.870;2023-10-13T00:11:43;101266.19;;;15.67;100.00
78665;BME280;67981;51.022;-2.870;2023-10-13T00:14:12;101240.97;;;15.66;100.00
78665;BME280;67981;51.022;-2.870;2023-10-13T00:16:44;101329.44;;;15.65;100.00
78665;BME280;67981;51.022;-2.870;2023-10-13T00:19:33;101325.03;;;15.59;100.00
78665;BME280;67981;51.022;-2.870;2023-10-13T00:22:17;101287.66;;;15.54;100.00
78665;BME280;67981;51.022;-2.870;2023-10-13T00:24:47;101257.25;;;15.51;100.00
78665;BME280;67981;51.022;-2.870;2023-10-13T00:27:20;101224.28;;;15.50;100.00
78665;BME280;67981;51.022;-2.870;2023-10-13T00:32:45;101160.03;;;15.43;100.00
78665;BME280;67981;51.022;-2.870;2023-10-13T00:35:17;101138.38;;;15.44;100.00
78665;BME280;67981;51.022;-2.870;2023-10-13T00:38:01;101076.63;;;15.31;100.00
78665;BME280;67981;51.022;-2.870;2023-10-13T00:40:38;101060.25;;;15.40;100.00
78665;BME280;67981;51.022;-2.870;2023-10-13T00:43:04;101051.66;;;15.44;100.00
78665;BME280;67981;51.022;-2.870;2023-10-13T00:45:56;101040.47;;;15.49;100.00
78665;BME280;67981;51.022;-2.870;2023-10-13T00:48:44;101035.31;;;15.54;100.00
78665;BME280;67981;51.022;-2.870;2023-10-13T00:51:20;101011.88;;;15.52;100.00
78665;BME280;67981;51.022;-2.870;2023-10-13T00:54:02;101008.47;;;15.58;100.00
78665;BME280;67981;51.022;-2.870;2023-10-13T00:56:32;101011.97;;;15.60;100.00
78665;BME280;67981;51.022;-2.870;2023-10-13T00:58:57;101022.41;;;15.63;100.00
78665;BME280;67981;51.022;-2.870;2023-10-13T01:01:27;101045.81;;;15.63;100.00
78665;BME280;67981;51.022;-2.870;2023-10-13T01:03:58;101046.69;;;15.64;100.00
78665;BME280;67981;51.022;-2.870;2023-10-13T01:06:29;101071.00;;;15.66;100.00
78665;BME280;67981;51.022;-2.870;2023-10-13T01:09:02;101084.91;;;15.69;100.00
78665;BME280;67981;51.022;-2.870;2023-10-13T01:14:12;101130.16;;;15.80;100.00
78665;BME280;67981;51.022;-2.870;2023-10-13T01:16:40;101138.06;;;15.89;100.00
78665;BME280;67981;51.022;-2.870;2023-10-13T01:19:15;101127.69;;;15.92;100.00
78665;BME280;67981;51.022;-2.870;2023-10-13T01:21:44;101145.97;;;15.98;100.00
78665;BME280;67981;51.022;-2.870;2023-10-13T01:24:10;101149.50;;;16.03;100.00
78665;BME280;67981;51.022;-2.870;2023-10-13T01:26:42;101165.31;;;16.18;100.00
78665;BME280;67981;51.022;-2.870;2023-10-13T01:29:08;101175.03;;;16.34;100.00
78665;BME280;67981;51.022;-2.870;2023-10-13T01:31:43;101151.72;;;16.46;100.00
78665;BME280;67981;51.022;-2.870;2023-10-13T01:34:18;101117.94;;;16.52;100.00
78665;BME280;67981;51.022;-2.870;2023-10-13T01:36:54;101079.78;;;16.59;100.00
78665;BME280;67981;51.022;-2.870;2023-10-13T01:39:21;101040.69;;;16.59;100.00
78665;BME280;67981;51.022;-2.870;2023-10-13T01:41:47;101009.44;;;16.66;100.00
78665;BME280;67981;51.022;-2.870;2023-10-13T01:44:18;100942.53;;;16.62;100.00
78665;BME280;67981;51.022;-2.870;2023-10-13T01:46:45;100920.84;;;16.62;100.00
78665;BME280;67981;51.022;-2.870;2023-10-13T01:49:13;100896.53;;;16.70;100.00
78665;BME280;67981;51.022;-2.870;2023-10-13T01:51:41;100852.22;;;16.66;100.00
78665;BME280;67981;51.022;-2.870;2023-10-13T01:54:06;100821.84;;;16.77;100.00
78665;BME280;67981;51.022;-2.870;2023-10-13T01:56:36;100766.22;;;16.70;100.00
78665;BME280;67981;51.022;-2.870;2023-10-13T01:59:08;100740.19;;;16.79;100.00
78665;BME280;67981;51.022;-2.870;2023-10-13T02:01:34;100703.72;;;16.81;100.00
78665;BME280;67981;51.022;-2.870;2023-10-13T02:04:01;100665.47;;;16.75;100.00
78665;BME280;67981;51.022;-2.870;2023-10-13T02:06:29;100633.34;;;16.78;100.00
78665;BME280;67981;51.022;-2.870;2023-10-13T02:09:02;100600.31;;;16.87;100.00
78665;BME280;67981;51.022;-2.870;2023-10-13T02:11:51;100538.63;;;16.92;100.00
78665;BME280;67981;51.022;-2.870;2023-10-13T02:14:20;100489.09;;;16.89;100.00
78665;BME280;67981;51.022;-2.870;2023-10-13T02:16:47;100428.25;;;16.90;100.00
78665;BME280;67981;51.022;-2.870;2023-10-13T02:19:15;100385.72;;;16.82;100.00
78665;BME280;67981;51.022;-2.870;2023-10-13T02:21:42;100339.75;;;16.66;100.00
78665;BME280;67981;51.022;-2.870;2023-10-13T02:24:10;100319.78;;;16.64;100.00
78665;BME280;67981;51.022;-2.870;2023-10-13T02:26:40;100307.63;;;16.63;100.00
78665;BME280;67981;51.022;-2.870;2023-10-13T02:29:06;100294.63;;;16.58;100.00
78665;BME280;67981;51.022;-2.870;2023-10-13T02:31:35;100273.75;;;16.63;100.00
78665;BME280;67981;51.022;-2.870;2023-10-13T02:34:02;100283.31;;;16.65;100.00
78665;BME280;67981;51.022;-2.870;2023-10-13T02:36:33;100265.97;;;16.60;100.00
78665;BME280;67981;51.022;-2.870;2023-10-13T02:39:09;100262.44;;;16.64;100.00
78665;BME280;67981;51.022;-2.870;2023-10-13T02:41:35;100250.28;;;16.64;100.00
78665;BME280;67981;51.022;-2.870;2023-10-13T02:44:05;100237.31;;;16.60;100.00
78665;BME280;67981;51.022;-2.870;2023-10-13T02:46:34;100221.66;;;16.61;100.00
78665;BME280;67981;51.022;-2.870;2023-10-13T02:49:05;100215.59;;;16.59;100.00
78665;BME280;67981;51.022;-2.870;2023-10-13T02:51:38;100196.47;;;16.65;100.00
78665;BME280;67981;51.022;-2.870;2023-10-13T02:54:07;100191.25;;;16.63;100.00
78665;BME280;67981;51.022;-2.870;2023-10-13T02:56:39;100174.75;;;16.61;100.00
78665;BME280;67981;51.022;-2.870;2023-10-13T02:59:24;100162.63;;;16.62;100.00
78665;BME280;67981;51.022;-2.870;2023-10-13T03:02:03;100156.50;;;16.63;100.00
78665;BME280;67981;51.022;-2.870;2023-10-13T03:04:40;100153.03;;;16.65;100.00
78665;BME280;67981;51.022;-2.870;2023-10-13T03:07:06;100143.47;;;16.66;100.00
78665;BME280;67981;51.022;-2.870;2023-10-13T03:09:31;100147.81;;;16.65;100.00
78665;BME280;67981;51.022;-2.870;2023-10-13T03:12:02;100136.53;;;16.65;100.00
78665;BME280;67981;51.022;-2.870;2023-10-13T03:14:29;100123.50;;;16.66;100.00
78665;BME280;67981;51.022;-2.870;2023-10-13T03:17:02;100124.34;;;16.68;100.00
78665;BME280;67981;51.022;-2.870;2023-10-13T03:19:31;100126.03;;;16.72;100.00
78665;BME280;67981;51.022;-2.870;2023-10-13T03:22:01;100128.69;;;16.68;100.00
78665;BME280;67981;51.022;-2.870;2023-10-13T03:24:39;100125.13;;;16.79;100.00
78665;BME280;67981;51.022;-2.870;2023-10-13T03:27:16;100122.53;;;16.79;100.00
78665;BME280;67981;51.022;-2.870;2023-10-13T03:29:44;100127.69;;;16.85;100.00
78665;BME280;67981;51.022;-2.870;2023-10-13T03:32:11;100125.94;;;16.87;100.00
78665;BME280;67981;51.022;-2.870;2023-10-13T03:34:44;100122.41;;;16.91;100.00
78665;BME280;67981;51.022;-2.870;2023-10-13T03:37:20;100120.66;;;16.93;100.00
78665;BME280;67981;51.022;-2.870;2023-10-13T03:40:09;100135.34;;;17.04;100.00
78665;BME280;67981;51.022;-2.870;2023-10-13T03:42:51;100126.59;;;17.12;100.00
78665;BME280;67981;51.022;-2.870;2023-10-13T03:45:34;100118.69;;;17.20;100.00
78665;BME280;67981;51.022;-2.870;2023-10-13T03:48:37;100101.25;;;17.23;100.00
78665;BME280;67981;51.022;-2.870;2023-10-13T03:51:00;100084.66;;;17.29;100.00
78665;BME280;67981;51.022;-2.870;2023-10-13T03:53:37;100054.31;;;17.23;100.00
78665;BME280;67981;51.022;-2.870;2023-10-13T03:56:18;100057.78;;;17.24;100.00
78665;BME280;67981;51.022;-2.870;2023-10-13T03:58:52;100036.13;;;17.16;100.00
78665;BME280;67981;51.022;-2.870;2023-10-13T04:01:19;100036.91;;;17.24;100.00
78665;BME280;67981;51.022;-2.870;2023-10-13T04:03:54;100051.66;;;17.28;100.00
78665;BME280;67981;51.022;-2.870;2023-10-13T04:06:28;100036.88;;;17.28;100.00
78665;BME280;67981;51.022;-2.870;2023-10-13T04:09:19;100028.19;;;17.26;100.00
78665;BME280;67981;51.022;-2.870;2023-10-13T04:11:57;100036.00;;;17.28;100.00
78665;BME280;67981;51.022;-2.870;2023-10-13T04:14:35;100029.03;;;17.30;100.00
78665;BME280;67981;51.022;-2.870;2023-10-13T04:17:19;100048.94;;;17.37;100.00
78665;BME280;67981;51.022;-2.870;2023-10-13T04:19:51;100055.81;;;17.45;100.00
78665;BME280;67981;51.022;-2.870;2023-10-13T04:22:39;100043.66;;;17.46;100.00
78665;BME280;67981;51.022;-2.870;2023-10-13T04:25:20;100024.38;;;17.57;100.00
78665;BME280;67981;51.022;-2.870;2023-10-13T04:28:24;100029.22;;;17.86;100.00
78665;BME280;67981;51.022;-2.870;2023-10-13T04:30:52;99993.34;;;17.97;100.00
78665;BME280;67981;51.022;-2.870;2023-10-13T04:33:26;99951.38;;;18.09;100.00
78665;BME280;67981;51.022;-2.870;2023-10-13T04:36:14;99900.91;;;18.10;100.00
78665;BME280;67981;51.022;-2.870;2023-10-13T04:38:50;99864.34;;;18.10;100.00
78665;BME280;67981;51.022;-2.870;2023-10-13T04:41:31;99799.94;;;18.10;100.00
78665;BME280;67981;51.022;-2.870;2023-10-13T04:44:01;99771.91;;;18.18;100.00
78665;BME280;67981;51.022;-2.870;2023-10-13T04:46:31;99722.19;;;18.23;100.00
78665;BME280;67981;51.022;-2.870;2023-10-13T04:49:22;99677.91;;;18.18;100.00
78665;BME280;67981;51.022;-2.870;2023-10-13T04:51:55;99655.09;;;18.25;100.00
78665;BME280;67981;51.022;-2.870;2023-10-13T04:54:27;99614.22;;;18.24;100.00
78665;BME280;67981;51.022;-2.870;2023-10-13T04:57:02;99586.38;;;18.23;100.00
78665;BME280;67981;51.022;-2.870;2023-10-13T04:59:47;99565.41;;;18.26;100.00
78665;BME280;67981;51.022;-2.870;2023-10-13T05:02:31;99538.31;;;18.30;100.00
78665;BME280;67981;51.022;-2.870;2023-10-13T05:07:47;99458.53;;;18.17;100.00
78665;BME280;67981;51.022;-2.870;2023-10-13T05:10:32;99475.59;;;18.33;100.00
78665;BME280;67981;51.022;-2.870;2023-10-13T05:13:16;99447.03;;;18.25;100.00
78665;BME280;67981;51.022;-2.870;2023-10-13T05:16:00;99429.69;;;18.23;100.00
78665;BME280;67981;51.022;-2.870;2023-10-13T05:18:44;99430.63;;;18.19;100.00
78665;BME280;67981;51.022;-2.870;2023-10-13T05:21:28;99445.34;;;18.23;100.00
78665;BME280;67981;51.022;-2.870;2023-10-13T05:24:13;99431.59;;;18.16;100.00
78665;BME280;67981;51.022;-2.870;2023-10-13T05:26:57;99448.16;;;18.14;100.00
78665;BME280;67981;51.022;-2.870;2023-10-13T05:29:42;99471.31;;;18.29;100.00
78665;BME280;67981;51.022;-2.870;2023-10-13T05:32:26;99496.63;;;18.25;100.00
78665;BME280;67981;51.022;-2.870;2023-10-13T05:35:14;99496.72;;;18.22;100.00
78665;BME280;67981;51.022;-2.870;2023-10-13T05:38:00;99505.38;;;18.24;100.00
78665;BME280;67981;51.022;-2.870;2023-10-13T05:40:57;99499.38;;;18.21;100.00
78665;BME280;67981;51.022;-2.870;2023-10-13T05:43:42;99516.69;;;18.23;100.00
78665;BME280;67981;51.022;-2.870;2023-10-13T05:46:26;99504.34;;;18.30;100.00
78665;BME280;67981;51.022;-2.870;2023-10-13T05:48:52;99488.91;;;18.21;100.00
78665;BME280;67981;51.022;-2.870;2023-10-13T05:51:21;99486.81;;;18.35;100.00
78665;BME280;67981;51.022;-2.870;2023-10-13T05:54:04;99472.22;;;18.28;100.00
78665;BME280;67981;51.022;-2.870;2023-10-13T05:56:42;99471.44;;;18.24;100.00
78665;BME280;67981;51.022;-2.870;2023-10-13T05:59:27;99467.13;;;18.22;100.00
78665;BME280;67981;51.022;-2.870;2023-10-13T06:02:12;99468.84;;;18.23;100.00
78665;BME280;67981;51.022;-2.870;2023-10-13T06:04:57;99462.84;;;18.19;100.00
78665;BME280;67981;51.022;-2.870;2023-10-13T06:07:41;99453.34;;;18.15;100.00
78665;BME280;67981;51.022;-2.870;2023-10-13T06:10:25;99459.44;;;18.16;100.00
78665;BME280;67981;51.022;-2.870;2023-10-13T06:13:09;99459.38;;;18.19;100.00
78665;BME280;67981;51.022;-2.870;2023-10-13T06:15:53;99454.97;;;18.21;100.00
78665;BME280;67981;51.022;-2.870;2023-10-13T06:18:37;99442.88;;;18.17;100.00
78665;BME280;67981;51.022;-2.870;2023-10-13T06:21:21;99447.03;;;18.25;100.00
78665;BME280;67981;51.022;-2.870;2023-10-13T06:24:05;99428.84;;;18.21;100.00
78665;BME280;67981;51.022;-2.870;2023-10-13T06:26:49;99429.75;;;18.20;100.00
78665;BME280;67981;51.022;-2.870;2023-10-13T06:29:33;99429.66;;;18.24;100.00
78665;BME280;67981;51.022;-2.870;2023-10-13T06:31:59;99425.25;;;18.26;100.00
78665;BME280;67981;51.022;-2.870;2023-10-13T06:34:30;99433.09;;;18.25;100.00
78665;BME280;67981;51.022;-2.870;2023-10-13T06:37:14;99429.53;;;18.29;100.00
78665;BME280;67981;51.022;-2.870;2023-10-13T06:39:54;99410.53;;;18.22;100.00
78665;BME280;67981;51.022;-2.870;2023-10-13T06:42:28;99402.75;;;18.21;100.00
78665;BME280;67981;51.022;-2.870;2023-10-13T06:44:57;99415.75;;;18.22;100.00
78665;BME280;67981;51.022;-2.870;2023-10-13T06:47:25;99412.28;;;18.22;100.00
78665;BME280;67981;51.022;-2.870;2023-10-13T06:49:53;99413.09;;;18.24;100.00
78665;BME280;67981;51.022;-2.870;2023-10-13T06:52:20;99417.47;;;18.23;100.00
78665;BME280;67981;51.022;-2.870;2023-10-13T06:54:50;99424.38;;;18.26;100.00
78665;BME280;67981;51.022;-2.870;2023-10-13T06:57:15;99417.50;;;18.22;100.00
78665;BME280;67981;51.022;-2.870;2023-10-13T06:59:48;99432.25;;;18.24;100.00
78665;BME280;67981;51.022;-2.870;2023-10-13T07:02:14;99434.09;;;18.21;100.00
78665;BME280;67981;51.022;-2.870;2023-10-13T07:04:49;99431.44;;;18.22;100.00
78665;BME280;67981;51.022;-2.870;2023-10-13T07:07:22;99441.13;;;18.17;100.00
78665;BME280;67981;51.022;-2.870;2023-10-13T07:09:49;99454.25;;;18.14;100.00
78665;BME280;67981;51.022;-2.870;2023-10-13T07:12:21;99454.34;;;18.11;100.00
78665;BME280;67981;51.022;-2.870;2023-10-13T07:14:53;99456.94;;;18.11;100.00
78665;BME280;67981;51.022;-2.870;2023-10-13T07:17:24;99463.94;;;18.09;100.00
78665;BME280;67981;51.022;-2.870;2023-10-13T07:19:53;99469.13;;;18.11;100.00
78665;BME280;67981;51.022;-2.870;2023-10-13T07:22:19;99472.78;;;18.05;100.00
78665;BME280;67981;51.022;-2.870;2023-10-13T07:24:45;99477.00;;;18.09;100.00
78665;BME280;67981;51.022;-2.870;2023-10-13T07:27:15;99502.25;;;18.09;100.00
78665;BME280;67981;51.022;-2.870;2023-10-13T07:29:48;99501.53;;;18.04;100.00
78665;BME280;67981;51.022;-2.870;2023-10-13T07:32:21;99516.38;;;18.02;100.00
78665;BME280;67981;51.022;-2.870;2023-10-13T07:34:49;99531.94;;;18.05;100.00
78665;BME280;67981;51.022;-2.870;2023-10-13T07:37:15;99538.81;;;18.10;100.00
78665;BME280;67981;51.022;-2.870;2023-10-13T07:39:41;99528.53;;;18.01;100.00
78665;BME280;67981;51.022;-2.870;2023-10-13T07:42:08;99531.75;;;18.12;100.00
78665;BME280;67981;51.022;-2.870;2023-10-13T07:44:40;99533.47;;;18.15;100.00
78665;BME280;67981;51.022;-2.870;2023-10-13T07:47:12;99526.44;;;18.18;100.00
78665;BME280;67981;51.022;-2.870;2023-10-13T07:49:40;99536.88;;;18.18;100.00
78665;BME280;67981;51.022;-2.870;2023-10-13T07:52:08;99532.56;;;18.16;100.00
78665;BME280;67981;51.022;-2.870;2023-10-13T07:54:50;99516.03;;;18.15;100.00
78665;BME280;67981;51.022;-2.870;2023-10-13T07:57:36;99516.03;;;18.15;100.00
78665;BME280;67981;51.022;-2.870;2023-10-13T08:00:02;99508.31;;;18.11;100.00
78665;BME280;67981;51.022;-2.870;2023-10-13T08:02:37;99526.63;;;18.09;100.00
78665;BME280;67981;51.022;-2.870;2023-10-13T08:05:18;99531.81;;;18.11;100.00
78665;BME280;67981;51.022;-2.870;2023-10-13T08:07:54;99534.41;;;18.11;100.00
78665;BME280;67981;51.022;-2.870;2023-10-13T08:10:21;99537.06;;;18.09;100.00
78665;BME280;67981;51.022;-2.870;2023-10-13T08:12:55;99544.78;;;18.14;100.00
78665;BME280;67981;51.022;-2.870;2023-10-13T08:15:21;99549.06;;;18.18;100.00
78665;BME280;67981;51.022;-2.870;2023-10-13T08:17:56;99552.50;;;18.20;100.00
78665;BME280;67981;51.022;-2.870;2023-10-13T08:20:23;99545.44;;;18.23;100.00
78665;BME280;67981;51.022;-2.870;2023-10-13T08:22:51;99540.22;;;18.23;100.00
78665;BME280;67981;51.022;-2.870;2023-10-13T08:25:35;99521.16;;;18.20;100.00
78665;BME280;67981;51.022;-2.870;2023-10-13T08:28:19;99524.75;;;18.14;100.00
78665;BME280;67981;51.022;-2.870;2023-10-13T08:31:06;99508.09;;;18.20;100.00
78665;BME280;67981;51.022;-2.870;2023-10-13T08:33:50;99507.16;;;18.22;100.00
78665;BME280;67981;51.022;-2.870;2023-10-13T08:36:23;99500.00;;;18.30;100.00
78665;BME280;67981;51.022;-2.870;2023-10-13T08:38:56;99499.88;;;18.35;100.00
78665;BME280;67981;51.022;-2.870;2023-10-13T08:41:22;99484.00;;;18.46;100.00
78665;BME280;67981;51.022;-2.870;2023-10-13T08:43:49;99474.22;;;18.54;100.00
78665;BME280;67981;51.022;-2.870;2023-10-13T08:46:16;99475.88;;;18.56;100.00
78665;BME280;67981;51.022;-2.870;2023-10-13T08:48:56;99427.47;;;18.42;100.00
78665;BME280;67981;51.022;-2.870;2023-10-13T08:51:51;99442.69;;;18.60;100.00
78665;BME280;67981;51.022;-2.870;2023-10-13T08:54:32;99429.47;;;18.66;100.00
78665;BME280;67981;51.022;-2.870;2023-10-13T08:57:04;99423.25;;;18.70;100.00
78665;BME280;67981;51.022;-2.870;2023-10-13T08:59:55;99419.88;;;18.66;100.00
78665;BME280;67981;51.022;-2.870;2023-10-13T09:02:23;99388.78;;;18.56;100.00
78665;BME280;67981;51.022;-2.870;2023-10-13T09:05:09;99392.44;;;18.50;100.00
78665;BME280;67981;51.022;-2.870;2023-10-13T09:07:54;99386.25;;;18.53;100.00
78665;BME280;67981;51.022;-2.870;2023-10-13T09:10:23;99382.41;;;18.66;100.00
78665;BME280;67981;51.022;-2.870;2023-10-13T09:12:58;99374.50;;;18.69;100.00
78665;BME280;67981;51.022;-2.870;2023-10-13T09:15:30;99370.03;;;18.72;100.00
78665;BME280;67981;51.022;-2.870;2023-10-13T09:18:27;99355.00;;;18.80;100.00
78665;BME280;67981;51.022;-2.870;2023-10-13T09:21:25;99329.00;;;18.76;100.00
78665;BME280;67981;51.022;-2.870;2023-10-13T09:24:05;99326.91;;;18.87;100.00
78665;BME280;67981;51.022;-2.870;2023-10-13T09:26:43;99290.81;;;18.70;100.00
78665;BME280;67981;51.022;-2.870;2023-10-13T09:29:19;99301.66;;;18.87;100.00
78665;BME280;67981;51.022;-2.870;2023-10-13T09:31:46;99295.25;;;18.97;100.00
78665;BME280;67981;51.022;-2.870;2023-10-13T09:34:21;99288.88;;;19.06;100.00
78665;BME280;67981;51.022;-2.870;2023-10-13T09:36:49;99282.06;;;19.29;100.00
78665;BME280;67981;51.022;-2.870;2023-10-13T09:39:23;99268.53;;;19.43;100.00
78665;BME280;67981;51.022;-2.870;2023-10-13T09:41:59;99245.25;;;19.35;100.00
78665;BME280;67981;51.022;-2.870;2023-10-13T09:44:26;99240.00;;;19.35;100.00
78665;BME280;67981;51.022;-2.870;2023-10-13T09:47:01;99226.94;;;19.35;100.00
78665;BME280;67981;51.022;-2.870;2023-10-13T09:49:39;99206.09;;;19.32;100.00
78665;BME280;67981;51.022;-2.870;2023-10-13T09:52:16;99199.56;;;19.45;100.00
78665;BME280;67981;51.022;-2.870;2023-10-13T09:55:03;99155.44;;;19.35;100.00
78665;BME280;67981;51.022;-2.870;2023-10-13T09:57:36;99127.88;;;19.23;100.00
78665;BME280;67981;51.022;-2.870;2023-10-13T10:00:12;99135.84;;;19.20;100.00
78665;BME280;67981;51.022;-2.870;2023-10-13T10:02:56;99117.31;;;19.02;100.00
78665;BME280;67981;51.022;-2.870;2023-10-13T10:05:24;99132.13;;;19.01;100.00
78665;BME280;67981;51.022;-2.870;2023-10-13T10:07:57;99113.06;;;18.98;100.00
78665;BME280;67981;51.022;-2.870;2023-10-13T10:16:38;99106.28;;;19.18;100.00
78665;BME280;67981;51.022;-2.870;2023-10-13T10:19:07;99068.56;;;18.99;100.00
78665;BME280;67981;51.022;-2.870;2023-10-13T10:21:35;99087.13;;;19.18;100.00
78665;BME280;67981;51.022;-2.870;2023-10-13T10:24:01;99078.50;;;19.14;100.00
78665;BME280;67981;51.022;-2.870;2023-10-13T10:26:32;99053.75;;;19.00;100.00
78665;BME280;67981;51.022;-2.870;2023-10-13T10:28:58;99056.84;;;19.11;100.00
78665;BME280;67981;51.022;-2.870;2023-10-13T10:31:32;99042.88;;;19.12;100.00
78665;BME280;67981;51.022;-2.870;2023-10-13T10:34:14;99035.28;;;19.04;100.00
78665;BME280;67981;51.022;-2.870;2023-10-13T10:36:40;99007.19;;;18.85;100.00
78665;BME280;67981;51.022;-2.870;2023-10-13T10:39:08;99005.28;;;18.90;100.00
78665;BME280;67981;51.022;-2.870;2023-10-13T10:41:36;98998.03;;;18.98;100.00
78665;BME280;67981;51.022;-2.870;2023-10-13T10:44:14;98999.13;;;19.15;100.00
78665;BME280;67981;51.022;-2.870;2023-10-13T10:46:43;98981.75;;;19.14;100.00
78665;BME280;67981;51.022;-2.870;2023-10-13T10:49:22;98968.22;;;19.03;100.00
78665;BME280;67981;51.022;-2.870;2023-10-13T10:51:57;98952.06;;;18.92;100.00
78665;BME280;67981;51.022;-2.870;2023-10-13T10:54:26;98953.47;;;19.01;100.00
78665;BME280;67981;51.022;-2.870;2023-10-13T10:56:56;98960.25;;;19.06;100.00
78665;BME280;67981;51.022;-2.870;2023-10-13T10:59:21;98946.38;;;19.04;100.00
78665;BME280;67981;51.022;-2.870;2023-10-13T11:01:50;98927.97;;;19.07;100.00
78665;BME280;67981;51.022;-2.870;2023-10-13T11:04:19;98918.38;;;19.08;100.00
78665;BME280;67981;51.022;-2.870;2023-10-13T11:06:54;98919.00;;;19.14;100.00
78665;BME280;67981;51.022;-2.870;2023-10-13T11:09:30;98934.34;;;19.23;100.00
78665;BME280;67981;51.022;-2.870;2023-10-13T11:14:40;98918.00;;;19.17;100.00
78665;BME280;67981;51.022;-2.870;2023-10-13T11:17:06;98915.94;;;19.26;100.00
78665;BME280;67981;51.022;-2.870;2023-10-13T11:19:46;98916.75;;;19.28;100.00
78665;BME280;67981;51.022;-2.870;2023-10-13T11:22:16;98927.63;;;19.41;100.00
78665;BME280;67981;51.022;-2.870;2023-10-13T11:25:05;98924.66;;;19.50;100.00
78665;BME280;67981;51.022;-2.870;2023-10-13T11:27:35;98918.56;;;19.49;99.68
78665;BME280;67981;51.022;-2.870;2023-10-13T11:30:19;98919.47;;;19.48;99.65
78665;BME280;67981;51.022;-2.870;2023-10-13T11:33:02;98893.66;;;19.39;99.44
78665;BME280;67981;51.022;-2.870;2023-10-13T11:35:39;98883.75;;;19.47;99.02
78665;BME280;67981;51.022;-2.870;2023-10-13T11:40:58;98875.84;;;19.03;99.15
78665;BME280;67981;51.022;-2.870;2023-10-13T11:43:33;98858.13;;;18.88;99.69
78665;BME280;67981;51.022;-2.870;2023-10-13T11:46:12;98908.44;;;18.93;100.00
78665;BME280;67981;51.022;-2.870;2023-10-13T11:48:38;98904.25;;;18.89;100.00
78665;BME280;67981;51.022;-2.870;2023-10-13T11:51:06;98951.88;;;19.21;100.00
78665;BME280;67981;51.022;-2.870;2023-10-13T11:53:37;98927.75;;;19.13;100.00
78665;BME280;67981;51.022;-2.870;2023-10-13T11:56:05;98914.13;;;19.28;99.16
78665;BME280;67981;51.022;-2.870;2023-10-13T11:58:35;98897.44;;;19.32;98.59
78665;BME280;67981;51.022;-2.870;2023-10-13T12:01:01;98883.44;;;19.33;98.05
78665;BME280;67981;51.022;-2.870;2023-10-13T12:03:49;98869.88;;;19.45;97.69
78665;BME280;67981;51.022;-2.870;2023-10-13T12:06:34;98868.97;;;19.46;97.80
78665;BME280;67981;51.022;-2.870;2023-10-13T12:09:06;98849.19;;;19.39;97.32
78665;BME280;67981;51.022;-2.870;2023-10-13T12:11:41;98835.75;;;19.25;96.80
78665;BME280;67981;51.022;-2.870;2023-10-13T12:14:13;98841.28;;;19.18;97.56
78665;BME280;67981;51.022;-2.870;2023-10-13T12:16:55;98840.78;;;19.08;97.82
78665;BME280;67981;51.022;-2.870;2023-10-13T12:19:24;98859.91;;;19.09;98.22
78665;BME280;67981;51.022;-2.870;2023-10-13T12:21:50;98860.75;;;18.86;98.78
78665;BME280;67981;51.022;-2.870;2023-10-13T12:24:20;98897.75;;;18.76;99.54
78665;BME280;67981;51.022;-2.870;2023-10-13T12:27:00;98920.13;;;18.32;100.00
78665;BME280;67981;51.022;-2.870;2023-10-13T12:29:26;98964.91;;;17.94;100.00
78665;BME280;67981;51.022;-2.870;2023-10-13T12:31:57;99013.19;;;17.79;100.00
78665;BME280;67981;51.022;-2.870;2023-10-13T12:34:40;99051.53;;;17.77;100.00
78665;BME280;67981;51.022;-2.870;2023-10-13T12:37:29;99100.59;;;17.95;100.00
78665;BME280;67981;51.022;-2.870;2023-10-13T12:40:19;99136.78;;;18.07;100.00
78665;BME280;67981;51.022;-2.870;2023-10-13T12:43:04;99137.53;;;18.11;100.00
78665;BME280;67981;51.022;-2.870;2023-10-13T12:45:49;99160.03;;;18.16;100.00
78665;BME280;67981;51.022;-2.870;2023-10-13T12:48:35;99184.72;;;18.05;100.00
78665;BME280;67981;51.022;-2.870;2023-10-13T12:51:20;99194.38;;;18.01;100.00
78665;BME280;67981;51.022;-2.870;2023-10-13T12:53:47;99184.34;;;17.86;100.00
78665;BME280;67981;51.022;-2.870;2023-10-13T12:56:14;99203.69;;;17.79;100.00
78665;BME280;67981;51.022;-2.870;2023-10-13T12:58:40;99225.22;;;17.87;100.00
78665;BME280;67981;51.022;-2.870;2023-10-13T13:01:06;99233.69;;;17.63;100.00
78665;BME280;67981;51.022;-2.870;2023-10-13T13:03:32;99240.91;;;17.54;100.00
78665;BME280;67981;51.022;-2.870;2023-10-13T13:05:58;99251.47;;;17.48;100.00
78665;BME280;67981;51.022;-2.870;2023-10-13T13:08:24;99271.47;;;17.49;100.00
78665;BME280;67981;51.022;-2.870;2023-10-13T13:10:50;99281.00;;;17.50;100.00
78665;BME280;67981;51.022;-2.870;2023-10-13T13:13:16;99277.63;;;17.43;100.00
78665;BME280;67981;51.022;-2.870;2023-10-13T13:15:49;99287.34;;;17.37;100.00
78665;BME280;67981;51.022;-2.870;2023-10-13T13:18:15;99290.69;;;17.43;100.00
78665;BME280;67981;51.022;-2.870;2023-10-13T13:20:40;99293.88;;;17.56;100.00
78665;BME280;67981;51.022;-2.870;2023-10-13T13:23:19;99299.75;;;17.64;100.00
78665;BME280;67981;51.022;-2.870;2023-10-13T13:25:47;99282.19;;;17.70;100.00
78665;BME280;67981;51.022;-2.870;2023-10-13T13:28:13;99274.25;;;17.76;100.00
78665;BME280;67981;51.022;-2.870;2023-10-13T13:30:43;99264.06;;;17.66;100.00
78665;BME280;67981;51.022;-2.870;2023-10-13T13:33:09;99259.66;;;17.68;100.00
78665;BME280;67981;51.022;-2.870;2023-10-13T13:35:39;99257.06;;;17.68;100.00